Buoy 21952

sailwx.info

Track history (hours):
 
Tides and Currents Weather Stations Pressure Air Temp Water Temp Dewpoint Dewpoint Depression Visibility Wind Speed Wind Dir Waves Ship Positions

Drifting buoy 21952

Last reported at 2017-Sep-19 15:00 UTC. Time now 2017-Sep-19 16:53 UTC.
Position N 31°47' W 138°16'.

Barometer 1024.7 mb
Water temperature 22.8 ° C

Date/timePositionNaut miles runAvg speedWind from/ knotsBaromVisibWave heightAir tempDewpointWater temp
2017-Sep-19 15:00N 31°47' W 138°16'2 2.1 1024.7 22.8
2017-Sep-19 14:00N 31°48' W 138°14'1 0.5 1024.3 22.9
2017-Sep-19 13:00N 31°48' W 138°14'1 1.0 1024.1 22.9
2017-Sep-19 12:00N 31°48' W 138°13'2 1.6 1023.9 22.9
2017-Sep-19 11:00N 31°49' W 138°11'0 0.0 1024.1 23.0
2017-Sep-19 07:00N 31°49' W 138°11'1 1.0 1024.6 23.0
2017-Sep-19 06:00N 31°49' W 138°10'1 0.8 1024.2 23.0
2017-Sep-19 05:00N 31°49' W 138°10'0 0.0 1024.0 23.0
2017-Sep-19 04:00N 31°49' W 138°10'2 1.5 1023.2 23.1
2017-Sep-19 03:00N 31°49' W 138°08'1 0.8 1022.9 23.4
2017-Sep-19 02:00N 31°50' W 138°07'0 0.0 1022.7 23.4
2017-Sep-19 01:00N 31°50' W 138°07'2 1.6 1022.8 23.8
2017-Sep-19 00:00N 31°50' W 138°05'0 0.0 1022.8 24.5
2017-Sep-18 23:00N 31°50' W 138°05'0 0.0 1023.1 25.8
2017-Sep-18 22:00N 31°50' W 138°05'1 0.3 1023.3 24.8
2017-Sep-18 20:00N 31°50' W 138°05'1 0.3 1023.9 23.4
2017-Sep-18 18:00N 31°51' W 138°05'1 0.8 1023.7 22.9
2017-Sep-18 17:00N 31°52' W 138°05'0 0.0 1023.7 22.8
2017-Sep-18 16:00N 31°52' W 138°05'1 1.0 1023.1 22.8
2017-Sep-18 15:00N 31°52' W 138°04'0 0.0 1022.7 22.8
2017-Sep-18 14:00N 31°52' W 138°04'0 0.0 1022.6 22.8
2017-Sep-18 13:00N 31°52' W 138°04'1 0.5 1022.5 22.8
2017-Sep-18 12:00N 31°52' W 138°04'0 0.0 1022.6 22.9
2017-Sep-18 07:00N 31°52' W 138°04'0 0.0 1024.0 22.9
2017-Sep-18 06:00N 31°52' W 138°04'1 0.5 1023.7 22.9
2017-Sep-18 05:00N 31°52' W 138°03'1 0.8 1023.2 22.9
2017-Sep-18 04:00N 31°51' W 138°02'1 0.5 1022.7 23.0
2017-Sep-18 03:00N 31°51' W 138°02'1 0.8 1022.4 23.1
2017-Sep-18 02:00N 31°50' W 138°01'2 1.5 1022.3 23.1
2017-Sep-18 01:00N 31°50' W 137°59'1 0.8 1022.6 23.1
2017-Sep-18 00:00N 31°51' W 138°00'3 1.6 1022.8 23.1
2017-Sep-17 22:00N 31°52' W 137°56'0 0.0 1023.4 22.9
2017-Sep-17 20:00N 31°52' W 137°56'1 0.5 1024.3 22.8
2017-Sep-17 19:00N 31°52' W 137°56'1 1.3 1024.4 22.7
2017-Sep-17 18:00N 31°53' W 137°55'2 2.4 1024.1 22.6
2017-Sep-17 17:00N 31°54' W 137°53'0 0.0 1023.7 22.6
2017-Sep-17 16:00N 31°54' W 137°53'0 0.0 1023.3 22.6
2017-Sep-17 15:00N 31°54' W 137°53'0 0.0 1022.9 22.6
2017-Sep-17 14:00N 31°54' W 137°53'0 0.0 1022.4 22.6
2017-Sep-17 13:00N 31°54' W 137°53'0 0.0 1022.1 22.6
2017-Sep-17 12:00N 31°54' W 137°53'1 0.2 1022.2 22.7
2017-Sep-17 06:00N 31°55' W 137°52'1 0.8 1022.7 22.8
2017-Sep-17 05:00N 31°54' W 137°51'0 0.0 1022.5 22.7
2017-Sep-17 04:00N 31°54' W 137°51'1 1.2 1022.1 22.7
2017-Sep-17 03:00N 31°55' W 137°50'1 1.2 1021.7 22.6
2017-Sep-17 02:00N 31°54' W 137°49'0 0.0 1021.6 22.6
2017-Sep-17 01:00N 31°54' W 137°49'0 0.0 1021.8 22.6
2017-Sep-17 00:00N 31°54' W 137°49'1 0.6 1021.8 22.6
2017-Sep-16 22:00N 31°55' W 137°47'3 0.9 1022.6 22.7
2017-Sep-16 19:00N 31°57' W 137°46'1 0.6 1023.8 22.6
2017-Sep-16 18:00N 31°58' W 137°46'1 0.8 1023.8 22.6
2017-Sep-16 17:00N 31°58' W 137°46'1 0.5 1023.5 22.6
2017-Sep-16 16:00N 31°58' W 137°47'1 0.5 1023.5 22.6
2017-Sep-16 15:00N 31°58' W 137°46'1 0.6 1023.1 22.5
2017-Sep-16 14:00N 31°59' W 137°46'1 0.5 1022.5 22.5
2017-Sep-16 13:00N 31°59' W 137°47'1 0.8 1022.6 22.5
2017-Sep-16 12:00N 31°58' W 137°46'1 0.2 1022.4 22.5
2017-Sep-16 07:00N 31°59' W 137°46'0 0.0 1023.3 22.5
2017-Sep-16 06:00N 31°59' W 137°46'1 0.6 1023.4 22.5
2017-Sep-16 05:00N 31°59' W 137°46'1 0.8 1023.4 22.5
2017-Sep-16 04:00N 32°00' W 137°45'1 1.2 1022.9 22.5
2017-Sep-16 03:00N 31°59' W 137°44'1 0.5 1022.9 22.6
2017-Sep-16 02:00N 31°59' W 137°44'1 1.2 1022.9 22.6
2017-Sep-16 01:00N 32°00' W 137°43'0 0.0 1022.8 22.7
2017-Sep-16 00:00N 32°00' W 137°43'1 0.6 1022.9 22.7
2017-Sep-15 23:00N 32°01' W 137°43'0 0.0 1023.2 22.6
2017-Sep-15 22:00N 32°01' W 137°43'2 1.0 1023.5 22.5
2017-Sep-15 20:00N 32°02' W 137°41'1 1.2 1024.1 22.5
2017-Sep-15 19:00N 32°02' W 137°40'1 1.2 1024.3 22.5
2017-Sep-15 18:00N 32°03' W 137°41'0 0.0 1024.1 22.5
2017-Sep-15 17:00N 32°03' W 137°41'0 0.0 1023.8 22.5
2017-Sep-15 15:00N 32°03' W 137°41'1 0.5 1022.9 22.4
2017-Sep-15 14:00N 32°03' W 137°42'0 0.0 1022.6 22.4
2017-Sep-15 13:00N 32°03' W 137°42'2 1.6 1022.2 22.4
2017-Sep-15 12:00N 32°02' W 137°41'1 0.2 1022.2 22.4
2017-Sep-15 07:00N 32°02' W 137°40'0 0.0 1022.9 22.4
2017-Sep-15 06:00N 32°02' W 137°40'1 0.5 1022.8 22.5
2017-Sep-15 05:00N 32°02' W 137°39'1 0.5 1022.2 22.5
2017-Sep-15 04:00N 32°02' W 137°38'1 1.0 1021.7 22.8
2017-Sep-15 03:00N 32°02' W 137°37'1 0.6 1021.4 22.8
2017-Sep-15 02:00N 32°02' W 137°37'1 1.2 1021.1 22.8
2017-Sep-15 01:00N 32°02' W 137°36'2 1.6 1020.7 22.9
2017-Sep-15 00:00N 32°02' W 137°34'0 0.0 1020.8 22.8
2017-Sep-14 23:00N 32°02' W 137°34'0 0.0 1021.0 22.8
2017-Sep-14 22:00N 32°02' W 137°34'3 1.6 1021.2 22.7
2017-Sep-14 20:00N 32°04' W 137°31'0 0.0 1022.0 22.6
2017-Sep-14 19:00N 32°04' W 137°31'1 1.2 1022.4 22.5
2017-Sep-14 18:00N 32°05' W 137°31'1 1.2 1022.2 22.5
2017-Sep-14 17:00N 32°05' W 137°32'2 1.5 1021.8 22.6
2017-Sep-14 16:00N 32°05' W 137°31'0 0.0 1021.3 22.6
2017-Sep-14 15:00N 32°05' W 137°31'0 0.0 1020.7 22.7
2017-Sep-14 14:00N 32°05' W 137°31'1 0.8 1020.1 22.6
2017-Sep-14 13:00N 32°05' W 137°30'0 0.0 1020.0 22.6
2017-Sep-14 12:00N 32°05' W 137°30'0 0.0 1019.8 22.6
2017-Sep-14 11:00N 32°05' W 137°30'6 1.5 1019.9 22.6
2017-Sep-14 07:00N 32°04' W 137°23'0 0.0 1020.6 22.5
2017-Sep-14 06:00N 32°04' W 137°23'0 0.0 1020.7 22.4
2017-Sep-14 05:00N 32°04' W 137°23'0 0.0 1020.0 22.4
2017-Sep-14 04:00N 32°04' W 137°23'2 1.6 1019.1 22.4
2017-Sep-14 03:00N 32°05' W 137°21'1 0.8 1018.9 22.3
2017-Sep-14 02:00N 32°05' W 137°20'1 0.6 1018.7 22.3
2017-Sep-14 01:00N 32°06' W 137°20'1 1.2 1018.9 22.4
2017-Sep-14 00:00N 32°07' W 137°19'0 0.0 1019.0 22.4
2017-Sep-13 23:00N 32°07' W 137°19'3 0.9 1019.4 22.4
2017-Sep-13 20:00N 32°09' W 137°17'0 0.0 1020.8 22.3
2017-Sep-13 19:00N 32°09' W 137°17'1 0.8 1020.8 22.4
2017-Sep-13 18:00N 32°10' W 137°17'0 0.0 1020.7 22.4
2017-Sep-13 17:00N 32°10' W 137°17'1 0.8 1020.6 22.5
2017-Sep-13 16:00N 32°10' W 137°17'0 0.0 1020.5 22.5
2017-Sep-13 15:00N 32°10' W 137°17'0 0.0 1020.2 22.5
2017-Sep-13 14:00N 32°10' W 137°17'1 1.2 1020.0 22.5
2017-Sep-13 13:00N 32°11' W 137°16'1 1.2 1019.7 22.5
2017-Sep-13 12:00N 32°10' W 137°17'3 2.6 1019.8 22.5
2017-Sep-13 11:00N 32°10' W 137°14'0 0.0 1020.0 22.5
2017-Sep-13 07:00N 32°10' W 137°14'1 1.2 1020.6 22.5
2017-Sep-13 06:00N 32°10' W 137°13'1 1.0 1020.3 22.5
2017-Sep-13 05:00N 32°10' W 137°12'1 0.6 1020.0 22.5
2017-Sep-13 04:00N 32°11' W 137°12'1 1.3 1019.4 22.5
2017-Sep-13 03:00N 32°12' W 137°11'1 0.5 1018.9 22.5
2017-Sep-13 02:00N 32°12' W 137°11'1 0.6 1018.9 22.6
2017-Sep-13 01:00N 32°13' W 137°11'1 0.8 1019.0 22.6
2017-Sep-13 00:00N 32°13' W 137°10'0 0.0 1019.1 22.6
2017-Sep-12 23:00N 32°13' W 137°10'1 0.2 1019.3 22.6
2017-Sep-12 20:00N 32°13' W 137°10'1 0.6 1020.5 22.4
2017-Sep-12 19:00N 32°14' W 137°10'1 0.5 1020.6 22.3
2017-Sep-12 18:00N 32°14' W 137°09'1 0.5 1020.3 22.3
2017-Sep-12 17:00N 32°14' W 137°10'1 0.6 1020.2 22.3
2017-Sep-12 16:00N 32°13' W 137°10'1 0.8 1019.9 22.3
2017-Sep-12 15:00N 32°14' W 137°09'0 0.0 1019.4 22.3
2017-Sep-12 14:00N 32°14' W 137°09'1 1.3 1019.2 22.3
2017-Sep-12 13:00N 32°15' W 137°08'2 0.8 1019.2 22.3
2017-Sep-12 11:00N 32°15' W 137°07'1 0.2 1019.5 22.3
2017-Sep-12 06:00N 32°16' W 137°07'2 1.5 1020.5 22.4
2017-Sep-12 05:00N 32°16' W 137°05'1 1.2 1020.3 22.4
2017-Sep-12 04:00N 32°17' W 137°05'1 0.6 1019.8 22.4
2017-Sep-12 03:00N 32°18' W 137°05'0 0.0 1019.4 22.4
2017-Sep-12 02:00N 32°18' W 137°05'1 0.5 1019.4 22.5
2017-Sep-12 01:00N 32°18' W 137°04'1 0.6 1019.4 22.5
2017-Sep-12 00:00N 32°19' W 137°04'0 0.0 1019.3 22.6
2017-Sep-11 23:00N 32°19' W 137°04'1 0.6 1019.6 22.6
2017-Sep-11 21:00N 32°19' W 137°03'1 0.6 1020.5 22.5
2017-Sep-11 20:00N 32°20' W 137°03'0 0.0 1020.9 22.5
2017-Sep-11 19:00N 32°20' W 137°03'1 0.6 1021.6 22.5
2017-Sep-11 17:00N 32°20' W 137°02'1 0.6 1021.6 22.5
2017-Sep-11 16:00N 32°21' W 137°02'1 1.0 1021.4 22.5
2017-Sep-11 15:00N 32°21' W 137°01'1 0.5 1021.3 22.5
2017-Sep-11 14:00N 32°21' W 137°01'1 0.6 1020.9 22.5
2017-Sep-11 13:00N 32°22' W 137°01'0 0.0 1020.7 22.5
2017-Sep-11 12:00N 32°22' W 137°01'2 2.1 1020.7 22.5
2017-Sep-11 11:00N 32°22' W 136°59'1 0.3 1021.3 22.4
2017-Sep-11 07:00N 32°23' W 136°58'0 0.0 1023.1 22.2
2017-Sep-11 06:00N 32°23' W 136°58'1 0.8 1023.2 22.2
2017-Sep-11 05:00N 32°23' W 136°57'1 0.5 1023.0 22.3
2017-Sep-11 04:00N 32°23' W 136°56'1 0.6 1022.7 22.3
2017-Sep-11 03:00N 32°24' W 136°56'2 1.6 1022.7 22.3
2017-Sep-11 02:00N 32°25' W 136°55'0 0.0 1022.6 22.4
2017-Sep-11 01:00N 32°25' W 136°55'1 0.8 1022.7 22.4
2017-Sep-11 00:00N 32°26' W 136°55'0 0.0 1023.0 22.4
2017-Sep-10 23:00N 32°26' W 136°55'0 0.0 1023.2 22.4
2017-Sep-10 22:00N 32°26' W 136°55'2 1.6 1023.9 22.3
2017-Sep-10 21:00N 32°27' W 136°53'1 0.6 1024.5 22.3
2017-Sep-10 20:00N 32°26' W 136°53'0 0.0 1025.0 22.2
2017-Sep-10 19:00N 32°26' W 136°53'0 0.0 1025.3 22.1
2017-Sep-10 18:00N 32°26' W 136°53'1 1.3 1025.3 22.1
2017-Sep-10 17:00N 32°28' W 136°53'0 0.0 1025.2 22.1
2017-Sep-10 16:00N 32°28' W 136°53'1 0.6 1025.2 22.1
2017-Sep-10 15:00N 32°27' W 136°53'1 0.8 1024.8 22.1
2017-Sep-10 14:00N 32°28' W 136°52'0 0.0 1024.8 22.1
2017-Sep-10 13:00N 32°28' W 136°52'1 0.5 1024.7 22.1
2017-Sep-10 12:00N 32°28' W 136°53'4 3.6 1024.7 22.2
2017-Sep-10 11:00N 32°28' W 136°49'0 0.0 1024.9 22.2
2017-Sep-10 07:00N 32°28' W 136°49'1 0.5 1025.9 22.3
2017-Sep-10 06:00N 32°28' W 136°48'1 0.6 1025.9 22.3
2017-Sep-10 05:00N 32°29' W 136°48'1 0.5 1025.6 22.3
2017-Sep-10 04:00N 32°29' W 136°47'1 1.2 1024.9 22.3
2017-Sep-10 03:00N 32°29' W 136°46'0 0.0 1024.5 22.3
2017-Sep-10 02:00N 32°29' W 136°46'0 0.0 1024.5 22.4
2017-Sep-10 01:00N 32°29' W 136°46'1 0.5 1024.2 22.4
2017-Sep-10 00:00N 32°29' W 136°46'1 0.8 1024.1 22.4
2017-Sep-09 23:00N 32°30' W 136°45'0 0.0 1024.5 22.4
2017-Sep-09 22:00N 32°30' W 136°45'2 1.6 1024.8 22.4
2017-Sep-09 21:00N 32°31' W 136°44'1 1.2 1025.2 22.3
2017-Sep-09 20:00N 32°31' W 136°43'0 0.0 1025.4 22.3
2017-Sep-09 19:00N 32°31' W 136°43'1 0.8 1025.6 22.3
2017-Sep-09 18:00N 32°31' W 136°42'1 0.8 1025.6 22.3
2017-Sep-09 17:00N 32°32' W 136°43'0 0.0 1025.5 22.4
2017-Sep-09 16:00N 32°32' W 136°43'1 0.6 1025.1 22.4
2017-Sep-09 15:00N 32°31' W 136°43'   1024.7 22.4
Track history (hours):
 
Tides and Currents Weather Stations Pressure Air Temp Water Temp Dewpoint Dewpoint Depression Visibility Wind Speed Wind Dir Waves Ship Positions

Drifting buoy 21952

Last reported at 2017-Sep-19 15:00 UTC. Time now 2017-Sep-19 16:53 UTC.
Position N 31°47' W 138°16'.

Barometer 1024.7 mb
Water temperature 22.8 ° C

Date/timePositionNaut miles runAvg speedWind from/ knotsBaromVisibWave heightAir tempDewpointWater temp
2017-Sep-19 15:00N 31°47' W 138°16'2 2.1 1024.7 22.8
2017-Sep-19 14:00N 31°48' W 138°14'1 0.5 1024.3 22.9
2017-Sep-19 13:00N 31°48' W 138°14'1 1.0 1024.1 22.9
2017-Sep-19 12:00N 31°48' W 138°13'2 1.6 1023.9 22.9
2017-Sep-19 11:00N 31°49' W 138°11'0 0.0 1024.1 23.0
2017-Sep-19 07:00N 31°49' W 138°11'1 1.0 1024.6 23.0
2017-Sep-19 06:00N 31°49' W 138°10'1 0.8 1024.2 23.0
2017-Sep-19 05:00N 31°49' W 138°10'0 0.0 1024.0 23.0
2017-Sep-19 04:00N 31°49' W 138°10'2 1.5 1023.2 23.1
2017-Sep-19 03:00N 31°49' W 138°08'1 0.8 1022.9 23.4
2017-Sep-19 02:00N 31°50' W 138°07'0 0.0 1022.7 23.4
2017-Sep-19 01:00N 31°50' W 138°07'2 1.6 1022.8 23.8
2017-Sep-19 00:00N 31°50' W 138°05'0 0.0 1022.8 24.5
2017-Sep-18 23:00N 31°50' W 138°05'0 0.0 1023.1 25.8
2017-Sep-18 22:00N 31°50' W 138°05'1 0.3 1023.3 24.8
2017-Sep-18 20:00N 31°50' W 138°05'1 0.3 1023.9 23.4
2017-Sep-18 18:00N 31°51' W 138°05'1 0.8 1023.7 22.9
2017-Sep-18 17:00N 31°52' W 138°05'0 0.0 1023.7 22.8
2017-Sep-18 16:00N 31°52' W 138°05'1 1.0 1023.1 22.8
2017-Sep-18 15:00N 31°52' W 138°04'0 0.0 1022.7 22.8
2017-Sep-18 14:00N 31°52' W 138°04'0 0.0 1022.6 22.8
2017-Sep-18 13:00N 31°52' W 138°04'1 0.5 1022.5 22.8
2017-Sep-18 12:00N 31°52' W 138°04'0 0.0 1022.6 22.9
2017-Sep-18 07:00N 31°52' W 138°04'0 0.0 1024.0 22.9
2017-Sep-18 06:00N 31°52' W 138°04'1 0.5 1023.7 22.9
2017-Sep-18 05:00N 31°52' W 138°03'1 0.8 1023.2 22.9
2017-Sep-18 04:00N 31°51' W 138°02'1 0.5 1022.7 23.0
2017-Sep-18 03:00N 31°51' W 138°02'1 0.8 1022.4 23.1
2017-Sep-18 02:00N 31°50' W 138°01'2 1.5 1022.3 23.1
2017-Sep-18 01:00N 31°50' W 137°59'1 0.8 1022.6 23.1
2017-Sep-18 00:00N 31°51' W 138°00'3 1.6 1022.8 23.1
2017-Sep-17 22:00N 31°52' W 137°56'0 0.0 1023.4 22.9
2017-Sep-17 20:00N 31°52' W 137°56'1 0.5 1024.3 22.8
2017-Sep-17 19:00N 31°52' W 137°56'1 1.3 1024.4 22.7
2017-Sep-17 18:00N 31°53' W 137°55'2 2.4 1024.1 22.6
2017-Sep-17 17:00N 31°54' W 137°53'0 0.0 1023.7 22.6
2017-Sep-17 16:00N 31°54' W 137°53'0 0.0 1023.3 22.6
2017-Sep-17 15:00N 31°54' W 137°53'0 0.0 1022.9 22.6
2017-Sep-17 14:00N 31°54' W 137°53'0 0.0 1022.4 22.6
2017-Sep-17 13:00N 31°54' W 137°53'0 0.0 1022.1 22.6
2017-Sep-17 12:00N 31°54' W 137°53'1 0.2 1022.2 22.7
2017-Sep-17 06:00N 31°55' W 137°52'1 0.8 1022.7 22.8
2017-Sep-17 05:00N 31°54' W 137°51'0 0.0 1022.5 22.7
2017-Sep-17 04:00N 31°54' W 137°51'1 1.2 1022.1 22.7
2017-Sep-17 03:00N 31°55' W 137°50'1 1.2 1021.7 22.6
2017-Sep-17 02:00N 31°54' W 137°49'0 0.0 1021.6 22.6
2017-Sep-17 01:00N 31°54' W 137°49'0 0.0 1021.8 22.6
2017-Sep-17 00:00N 31°54' W 137°49'1 0.6 1021.8 22.6
2017-Sep-16 22:00N 31°55' W 137°47'3 0.9 1022.6 22.7
2017-Sep-16 19:00N 31°57' W 137°46'1 0.6 1023.8 22.6
2017-Sep-16 18:00N 31°58' W 137°46'1 0.8 1023.8 22.6
2017-Sep-16 17:00N 31°58' W 137°46'1 0.5 1023.5 22.6
2017-Sep-16 16:00N 31°58' W 137°47'1 0.5 1023.5 22.6
2017-Sep-16 15:00N 31°58' W 137°46'1 0.6 1023.1 22.5
2017-Sep-16 14:00N 31°59' W 137°46'1 0.5 1022.5 22.5
2017-Sep-16 13:00N 31°59' W 137°47'1 0.8 1022.6 22.5
2017-Sep-16 12:00N 31°58' W 137°46'1 0.2 1022.4 22.5
2017-Sep-16 07:00N 31°59' W 137°46'0 0.0 1023.3 22.5
2017-Sep-16 06:00N 31°59' W 137°46'1 0.6 1023.4 22.5
2017-Sep-16 05:00N 31°59' W 137°46'1 0.8 1023.4 22.5
2017-Sep-16 04:00N 32°00' W 137°45'1 1.2 1022.9 22.5
2017-Sep-16 03:00N 31°59' W 137°44'1 0.5 1022.9 22.6
2017-Sep-16 02:00N 31°59' W 137°44'1 1.2 1022.9 22.6
2017-Sep-16 01:00N 32°00' W 137°43'0 0.0 1022.8 22.7
2017-Sep-16 00:00N 32°00' W 137°43'1 0.6 1022.9 22.7
2017-Sep-15 23:00N 32°01' W 137°43'0 0.0 1023.2 22.6
2017-Sep-15 22:00N 32°01' W 137°43'2 1.0 1023.5 22.5
2017-Sep-15 20:00N 32°02' W 137°41'1 1.2 1024.1 22.5
2017-Sep-15 19:00N 32°02' W 137°40'1 1.2 1024.3 22.5
2017-Sep-15 18:00N 32°03' W 137°41'0 0.0 1024.1 22.5
2017-Sep-15 17:00N 32°03' W 137°41'0 0.0 1023.8 22.5
2017-Sep-15 15:00N 32°03' W 137°41'1 0.5 1022.9 22.4
2017-Sep-15 14:00N 32°03' W 137°42'0 0.0 1022.6 22.4
2017-Sep-15 13:00N 32°03' W 137°42'2 1.6 1022.2 22.4
2017-Sep-15 12:00N 32°02' W 137°41'1 0.2 1022.2 22.4
2017-Sep-15 07:00N 32°02' W 137°40'0 0.0 1022.9 22.4
2017-Sep-15 06:00N 32°02' W 137°40'1 0.5 1022.8 22.5
2017-Sep-15 05:00N 32°02' W 137°39'1 0.5 1022.2 22.5
2017-Sep-15 04:00N 32°02' W 137°38'1 1.0 1021.7 22.8
2017-Sep-15 03:00N 32°02' W 137°37'1 0.6 1021.4 22.8
2017-Sep-15 02:00N 32°02' W 137°37'1 1.2 1021.1 22.8
2017-Sep-15 01:00N 32°02' W 137°36'2 1.6 1020.7 22.9
2017-Sep-15 00:00N 32°02' W 137°34'0 0.0 1020.8 22.8
2017-Sep-14 23:00N 32°02' W 137°34'0 0.0 1021.0 22.8
2017-Sep-14 22:00N 32°02' W 137°34'3 1.6 1021.2 22.7
2017-Sep-14 20:00N 32°04' W 137°31'0 0.0 1022.0 22.6
2017-Sep-14 19:00N 32°04' W 137°31'1 1.2 1022.4 22.5
2017-Sep-14 18:00N 32°05' W 137°31'1 1.2 1022.2 22.5
2017-Sep-14 17:00N 32°05' W 137°32'2 1.5 1021.8 22.6
2017-Sep-14 16:00N 32°05' W 137°31'0 0.0 1021.3 22.6
2017-Sep-14 15:00N 32°05' W 137°31'0 0.0 1020.7 22.7
2017-Sep-14 14:00N 32°05' W 137°31'1 0.8 1020.1 22.6
2017-Sep-14 13:00N 32°05' W 137°30'0 0.0 1020.0 22.6
2017-Sep-14 12:00N 32°05' W 137°30'0 0.0 1019.8 22.6
2017-Sep-14 11:00N 32°05' W 137°30'6 1.5 1019.9 22.6
2017-Sep-14 07:00N 32°04' W 137°23'0 0.0 1020.6 22.5
2017-Sep-14 06:00N 32°04' W 137°23'0 0.0 1020.7 22.4
2017-Sep-14 05:00N 32°04' W 137°23'0 0.0 1020.0 22.4
2017-Sep-14 04:00N 32°04' W 137°23'2 1.6 1019.1 22.4
2017-Sep-14 03:00N 32°05' W 137°21'1 0.8 1018.9 22.3
2017-Sep-14 02:00N 32°05' W 137°20'1 0.6 1018.7 22.3
2017-Sep-14 01:00N 32°06' W 137°20'1 1.2 1018.9 22.4
2017-Sep-14 00:00N 32°07' W 137°19'0 0.0 1019.0 22.4
2017-Sep-13 23:00N 32°07' W 137°19'3 0.9 1019.4 22.4
2017-Sep-13 20:00N 32°09' W 137°17'0 0.0 1020.8 22.3
2017-Sep-13 19:00N 32°09' W 137°17'1 0.8 1020.8 22.4
2017-Sep-13 18:00N 32°10' W 137°17'0 0.0 1020.7 22.4
2017-Sep-13 17:00N 32°10' W 137°17'1 0.8 1020.6 22.5
2017-Sep-13 16:00N 32°10' W 137°17'0 0.0 1020.5 22.5
2017-Sep-13 15:00N 32°10' W 137°17'0 0.0 1020.2 22.5
2017-Sep-13 14:00N 32°10' W 137°17'1 1.2 1020.0 22.5
2017-Sep-13 13:00N 32°11' W 137°16'1 1.2 1019.7 22.5
2017-Sep-13 12:00N 32°10' W 137°17'3 2.6 1019.8 22.5
2017-Sep-13 11:00N 32°10' W 137°14'0 0.0 1020.0 22.5
2017-Sep-13 07:00N 32°10' W 137°14'1 1.2 1020.6 22.5
2017-Sep-13 06:00N 32°10' W 137°13'1 1.0 1020.3 22.5
2017-Sep-13 05:00N 32°10' W 137°12'1 0.6 1020.0 22.5
2017-Sep-13 04:00N 32°11' W 137°12'1 1.3 1019.4 22.5
2017-Sep-13 03:00N 32°12' W 137°11'1 0.5 1018.9 22.5
2017-Sep-13 02:00N 32°12' W 137°11'1 0.6 1018.9 22.6
2017-Sep-13 01:00N 32°13' W 137°11'1 0.8 1019.0 22.6
2017-Sep-13 00:00N 32°13' W 137°10'0 0.0 1019.1 22.6
2017-Sep-12 23:00N 32°13' W 137°10'1 0.2 1019.3 22.6
2017-Sep-12 20:00N 32°13' W 137°10'1 0.6 1020.5 22.4
2017-Sep-12 19:00N 32°14' W 137°10'1 0.5 1020.6 22.3
2017-Sep-12 18:00N 32°14' W 137°09'1 0.5 1020.3 22.3
2017-Sep-12 17:00N 32°14' W 137°10'1 0.6 1020.2 22.3
2017-Sep-12 16:00N 32°13' W 137°10'1 0.8 1019.9 22.3
2017-Sep-12 15:00N 32°14' W 137°09'0 0.0 1019.4 22.3
2017-Sep-12 14:00N 32°14' W 137°09'1 1.3 1019.2 22.3
2017-Sep-12 13:00N 32°15' W 137°08'2 0.8 1019.2 22.3
2017-Sep-12 11:00N 32°15' W 137°07'1 0.2 1019.5 22.3
2017-Sep-12 06:00N 32°16' W 137°07'2 1.5 1020.5 22.4
2017-Sep-12 05:00N 32°16' W 137°05'1 1.2 1020.3 22.4
2017-Sep-12 04:00N 32°17' W 137°05'1 0.6 1019.8 22.4
2017-Sep-12 03:00N 32°18' W 137°05'0 0.0 1019.4 22.4
2017-Sep-12 02:00N 32°18' W 137°05'1 0.5 1019.4 22.5
2017-Sep-12 01:00N 32°18' W 137°04'1 0.6 1019.4 22.5
2017-Sep-12 00:00N 32°19' W 137°04'0 0.0 1019.3 22.6
2017-Sep-11 23:00N 32°19' W 137°04'1 0.6 1019.6 22.6
2017-Sep-11 21:00N 32°19' W 137°03'1 0.6 1020.5 22.5
2017-Sep-11 20:00N 32°20' W 137°03'0 0.0 1020.9 22.5
2017-Sep-11 19:00N 32°20' W 137°03'1 0.6 1021.6 22.5
2017-Sep-11 17:00N 32°20' W 137°02'1 0.6 1021.6 22.5
2017-Sep-11 16:00N 32°21' W 137°02'1 1.0 1021.4 22.5
2017-Sep-11 15:00N 32°21' W 137°01'1 0.5 1021.3 22.5
2017-Sep-11 14:00N 32°21' W 137°01'1 0.6 1020.9 22.5
2017-Sep-11 13:00N 32°22' W 137°01'0 0.0 1020.7 22.5
2017-Sep-11 12:00N 32°22' W 137°01'2 2.1 1020.7 22.5
2017-Sep-11 11:00N 32°22' W 136°59'1 0.3 1021.3 22.4
2017-Sep-11 07:00N 32°23' W 136°58'0 0.0 1023.1 22.2
2017-Sep-11 06:00N 32°23' W 136°58'1 0.8 1023.2 22.2
2017-Sep-11 05:00N 32°23' W 136°57'1 0.5 1023.0 22.3
2017-Sep-11 04:00N 32°23' W 136°56'1 0.6 1022.7 22.3
2017-Sep-11 03:00N 32°24' W 136°56'2 1.6 1022.7 22.3
2017-Sep-11 02:00N 32°25' W 136°55'0 0.0 1022.6 22.4
2017-Sep-11 01:00N 32°25' W 136°55'1 0.8 1022.7 22.4
2017-Sep-11 00:00N 32°26' W 136°55'0 0.0 1023.0 22.4
2017-Sep-10 23:00N 32°26' W 136°55'0 0.0 1023.2 22.4
2017-Sep-10 22:00N 32°26' W 136°55'2 1.6 1023.9 22.3
2017-Sep-10 21:00N 32°27' W 136°53'1 0.6 1024.5 22.3
2017-Sep-10 20:00N 32°26' W 136°53'0 0.0 1025.0 22.2
2017-Sep-10 19:00N 32°26' W 136°53'0 0.0 1025.3 22.1
2017-Sep-10 18:00N 32°26' W 136°53'1 1.3 1025.3 22.1
2017-Sep-10 17:00N 32°28' W 136°53'0 0.0 1025.2 22.1
2017-Sep-10 16:00N 32°28' W 136°53'1 0.6 1025.2 22.1
2017-Sep-10 15:00N 32°27' W 136°53'1 0.8 1024.8 22.1
2017-Sep-10 14:00N 32°28' W 136°52'0 0.0 1024.8 22.1
2017-Sep-10 13:00N 32°28' W 136°52'1 0.5 1024.7 22.1
2017-Sep-10 12:00N 32°28' W 136°53'4 3.6 1024.7 22.2
2017-Sep-10 11:00N 32°28' W 136°49'0 0.0 1024.9 22.2
2017-Sep-10 07:00N 32°28' W 136°49'1 0.5 1025.9 22.3
2017-Sep-10 06:00N 32°28' W 136°48'1 0.6 1025.9 22.3
2017-Sep-10 05:00N 32°29' W 136°48'1 0.5 1025.6 22.3
2017-Sep-10 04:00N 32°29' W 136°47'1 1.2 1024.9 22.3
2017-Sep-10 03:00N 32°29' W 136°46'0 0.0 1024.5 22.3
2017-Sep-10 02:00N 32°29' W 136°46'0 0.0 1024.5 22.4
2017-Sep-10 01:00N 32°29' W 136°46'1 0.5 1024.2 22.4
2017-Sep-10 00:00N 32°29' W 136°46'1 0.8 1024.1 22.4
2017-Sep-09 23:00N 32°30' W 136°45'0 0.0 1024.5 22.4
2017-Sep-09 22:00N 32°30' W 136°45'2 1.6 1024.8 22.4
2017-Sep-09 21:00N 32°31' W 136°44'1 1.2 1025.2 22.3
2017-Sep-09 20:00N 32°31' W 136°43'0 0.0 1025.4 22.3
2017-Sep-09 19:00N 32°31' W 136°43'1 0.8 1025.6 22.3
2017-Sep-09 18:00N 32°31' W 136°42'1 0.8 1025.6 22.3
2017-Sep-09 17:00N 32°32' W 136°43'0 0.0 1025.5 22.4
2017-Sep-09 16:00N 32°32' W 136°43'1 0.6 1025.1 22.4
2017-Sep-09 15:00N 32°31' W 136°43'   1024.7 22.4

Dump ship's entire track history